Time;durP1;ratioP1;P1;durP2;ratioP2;P2;SDS_P1;SDS_P2;PMS_P1;PMS_P2;Temp;Humidity;BMP_temperature;BMP_pressure;BME280_temperature;BME280_humidity;BME280_pressure;Samples;Min_cycle;Max_cycle;Signal;HPM_P1;HPM_P2
2021/07/14 00:00:18;;;;;;;2.90;2.40;;;;;;;11.82;88.00;95175.44;4978065;28;20212;-80
2021/07/14 00:02:44;;;;;;;3.70;2.43;;;;;;;11.74;87.81;95171.03;4994184;28;20235;-79
2021/07/14 00:05:12;;;;;;;2.90;2.47;;;;;;;11.73;87.84;95163.38;4994372;28;20286;-79
2021/07/14 00:07:37;;;;;;;2.77;2.57;;;;;;;11.70;88.27;95155.91;4993177;28;20246;-79
2021/07/14 00:10:12;;;;;;;3.30;2.50;;;;;;;11.59;88.00;95141.47;4977921;28;20215;-80
2021/07/14 00:12:47;;;;;;;3.13;2.47;;;;;;;11.57;88.47;95139.03;4994159;28;20195;-80
2021/07/14 00:23:13;;;;;;;2.73;2.53;;;;;;;11.51;87.97;95121.47;4974980;28;20240;-80
2021/07/14 00:25:38;;;;;;;2.77;2.23;;;;;;;11.46;88.13;95110.75;4968995;28;20207;-81
2021/07/14 00:28:04;;;;;;;2.70;2.50;;;;;;;11.44;88.19;95115.28;4977860;28;20662;-80
2021/07/14 00:30:31;;;;;;;2.53;2.33;;;;;;;11.47;88.39;95119.34;4994567;28;20188;-80
2021/07/14 00:32:56;;;;;;;3.70;2.53;;;;;;;11.46;87.88;95115.94;4993829;28;20192;-81
2021/07/14 00:35:21;;;;;;;3.03;2.77;;;;;;;11.48;87.60;95118.38;4976060;28;20203;-80
2021/07/14 00:37:47;;;;;;;3.83;2.20;;;;;;;11.47;87.75;95112.34;5005323;28;20180;-80
2021/07/14 00:40:12;;;;;;;4.20;2.33;;;;;;;11.50;87.59;95114.66;4977682;28;20183;-79
2021/07/14 00:42:38;;;;;;;3.83;2.50;;;;;;;11.46;87.84;95117.72;4994646;28;20219;-80
2021/07/14 00:45:05;;;;;;;2.50;2.30;;;;;;;11.45;87.39;95108.31;4977441;28;20221;-80
2021/07/14 00:47:33;;;;;;;4.77;2.47;;;;;;;11.45;87.30;95108.31;4992714;28;20706;-79
2021/07/14 00:49:59;;;;;;;2.50;2.30;;;;;;;11.37;87.94;95103.09;4993635;28;20283;-80
2021/07/14 00:52:24;;;;;;;3.00;2.70;;;;;;;11.38;87.58;95104.72;4993297;28;20738;-80
2021/07/14 00:54:50;;;;;;;2.70;2.43;;;;;;;11.44;87.13;95104.91;4993404;28;20184;-81
2021/07/14 00:57:17;;;;;;;4.33;2.80;;;;;;;11.45;86.96;95092.72;4971840;28;20184;-81
2021/07/14 00:59:43;;;;;;;3.90;2.80;;;;;;;11.49;86.58;95096.63;4972606;28;20199;-80
2021/07/14 01:02:08;;;;;;;3.27;2.53;;;;;;;11.53;86.53;95087.50;4977218;28;20184;-80
2021/07/14 01:04:38;;;;;;;3.63;2.40;;;;;;;11.51;86.17;95076.47;4977269;28;20180;-80
2021/07/14 01:07:32;;;;;;;2.97;2.77;;;;;;;11.54;86.11;95056.13;4975949;28;20647;-80
2021/07/14 01:10:10;;;;;;;3.63;2.60;;;;;;;11.55;86.43;95049.13;4990771;28;20230;-79
2021/07/14 01:12:53;;;;;;;2.63;2.40;;;;;;;11.51;86.31;95051.28;4992805;28;20254;-79
2021/07/14 01:15:20;;;;;;;3.30;3.07;;;;;;;11.52;86.53;95060.69;4992993;28;20199;-80
2021/07/14 01:18:07;;;;;;;2.67;2.47;;;;;;;11.56;86.60;95068.97;4975808;28;20194;-79
2021/07/14 01:20:53;;;;;;;3.30;3.00;;;;;;;11.61;86.39;95075.31;4993921;28;20270;-80
2021/07/14 01:23:34;;;;;;;4.30;3.20;;;;;;;11.65;86.25;95075.78;4976448;28;20203;-80
2021/07/14 01:26:07;;;;;;;3.87;3.20;;;;;;;11.68;86.11;95090.25;4992981;28;20214;-80
2021/07/14 01:28:35;;;;;;;3.20;2.90;;;;;;;11.72;86.02;95102.75;4991458;28;20191;-79
2021/07/14 01:31:01;;;;;;;6.67;3.37;;;;;;;11.74;85.75;95116.38;4982541;28;20188;-79
2021/07/14 01:33:30;;;;;;;3.30;2.87;;;;;;;11.77;85.98;95129.09;4976574;28;20211;-80
2021/07/14 01:35:57;;;;;;;4.23;3.23;;;;;;;11.76;86.19;95134.47;4992731;28;20725;-80
2021/07/14 01:38:25;;;;;;;3.97;3.33;;;;;;;11.72;86.54;95131.34;4992965;28;20184;-80
2021/07/14 01:40:51;;;;;;;3.43;3.13;;;;;;;11.78;86.74;95127.28;4991739;28;20718;-80
2021/07/14 01:43:17;;;;;;;3.77;3.20;;;;;;;11.78;86.86;95133.31;4984337;28;20567;-81
2021/07/14 01:45:42;;;;;;;3.60;3.07;;;;;;;11.89;86.71;95139.97;4992725;28;20207;-80
2021/07/14 01:48:11;;;;;;;5.90;3.67;;;;;;;11.89;86.62;95139.97;4992598;28;20180;-81
2021/07/14 01:50:37;;;;;;;5.13;3.20;;;;;;;11.91;86.21;95127.63;4975155;28;20183;-80
2021/07/14 01:53:03;;;;;;;4.43;3.50;;;;;;;11.90;86.15;95129.41;4992074;28;20350;-80
2021/07/14 01:55:31;;;;;;;3.93;3.57;;;;;;;11.91;86.25;95145.84;4976409;28;20180;-79
2021/07/14 01:57:57;;;;;;;3.97;3.60;;;;;;;11.95;86.46;95154.94;4992571;28;20180;-79
2021/07/14 02:00:23;;;;;;;7.07;3.73;;;;;;;11.95;86.40;95160.16;4992204;28;20184;-79
2021/07/14 02:03:05;;;;;;;4.33;3.33;;;;;;;11.99;86.95;95169.25;4987898;28;20291;-80
2021/07/14 02:05:32;;;;;;;3.77;3.00;;;;;;;12.11;85.86;95165.31;4973414;28;20287;-81
2021/07/14 02:07:58;;;;;;;4.03;2.83;;;;;;;12.05;86.24;95162.56;4973258;28;20188;-79
2021/07/14 02:10:23;;;;;;;3.50;2.80;;;;;;;11.98;86.63;95159.00;4989227;28;20183;-80
2021/07/14 02:12:50;;;;;;;3.53;3.20;;;;;;;11.99;86.64;95156.22;4974787;28;20215;-80
2021/07/14 02:15:15;;;;;;;3.33;3.03;;;;;;;11.97;86.62;95168.59;4975544;28;20547;-79
2021/07/14 02:17:54;;;;;;;5.60;3.30;;;;;;;11.93;86.90;95169.06;4992077;28;20188;-80
2021/07/14 02:20:20;;;;;;;3.33;3.03;;;;;;;11.93;86.57;95158.66;4975808;28;20180;-80
2021/07/14 02:22:47;;;;;;;2.90;2.70;;;;;;;11.93;86.37;95156.91;4991238;28;20647;-80
2021/07/14 02:25:13;;;;;;;3.43;3.00;;;;;;;11.86;86.93;95135.94;4992308;28;20672;-80
2021/07/14 02:27:39;;;;;;;4.97;3.20;;;;;;;11.86;87.19;95135.94;4993548;28;20183;-80
2021/07/14 02:30:16;;;;;;;3.93;2.70;;;;;;;11.85;86.80;95139.53;4976108;28;20187;-79
2021/07/14 02:32:42;;;;;;;2.57;2.33;;;;;;;11.80;87.01;95141.78;4975197;28;20510;-80
2021/07/14 02:35:08;;;;;;;7.50;3.03;;;;;;;11.81;87.28;95140.81;4991757;28;20175;-80
2021/07/14 02:37:39;;;;;;;3.03;2.70;;;;;;;11.86;87.15;95129.91;4992168;28;20203;-80
2021/07/14 02:40:06;;;;;;;5.17;3.00;;;;;;;11.80;87.62;95120.16;4991844;28;20558;-81
2021/07/14 02:42:33;;;;;;;3.30;3.00;;;;;;;11.80;86.97;95114.97;4975198;28;20687;-79
2021/07/14 02:45:01;;;;;;;2.90;2.60;;;;;;;11.81;86.74;95114.78;4972213;28;20332;-80
2021/07/14 02:47:36;;;;;;;5.90;3.33;;;;;;;11.72;87.34;95112.34;4991974;28;20180;-80
2021/07/14 02:50:05;;;;;;;5.00;2.67;;;;;;;11.66;87.61;95113.84;4975900;28;20246;-80
2021/07/14 02:52:30;;;;;;;2.87;2.57;;;;;;;11.60;87.37;95120.50;4975307;28;20212;-79
2021/07/14 02:54:56;;;;;;;2.93;2.73;;;;;;;11.53;87.68;95113.50;4989550;28;20251;-80
2021/07/14 02:57:24;;;;;;;3.70;2.90;;;;;;;11.47;88.21;95119.34;4972448;28;20188;-79
2021/07/14 02:59:53;;;;;;;3.20;2.90;;;;;;;11.43;88.29;95102.47;4956108;28;20188;-80
2021/07/14 03:02:19;;;;;;;2.93;2.73;;;;;;;11.32;88.67;95094.03;4988452;28;20563;-81
2021/07/14 03:04:47;;;;;;;3.67;2.63;;;;;;;11.28;88.40;95099.69;4974979;28;20184;-79
2021/07/14 03:07:12;;;;;;;3.00;2.80;;;;;;;11.33;87.86;95105.22;4975380;28;20188;-80
2021/07/14 03:09:40;;;;;;;5.33;3.13;;;;;;;11.25;88.21;95115.63;4991679;28;20194;-81
2021/07/14 03:12:12;;;;;;;6.93;3.53;;;;;;;11.20;88.46;95123.09;4991718;28;20205;-80
2021/07/14 03:14:44;;;;;;;4.17;3.20;;;;;;;11.22;88.24;95126.31;4975572;28;20648;-81
2021/07/14 03:17:11;;;;;;;3.60;3.13;;;;;;;11.20;88.40;95125.69;4963047;28;20176;-79
2021/07/14 03:19:37;;;;;;;3.33;3.03;;;;;;;11.18;88.20;95138.03;4991317;28;20179;-79
2021/07/14 03:22:03;;;;;;;3.40;3.10;;;;;;;11.19;88.33;95137.06;4975024;28;20179;-80
2021/07/14 03:24:28;;;;;;;10.33;3.80;;;;;;;11.17;88.34;95144.22;4991356;28;20211;-79
2021/07/14 03:26:54;;;;;;;4.40;3.03;;;;;;;11.13;88.50;95143.72;4988994;28;20203;-80
2021/07/14 03:29:19;;;;;;;3.83;3.40;;;;;;;11.15;88.52;95138.38;4972553;28;20185;-80
2021/07/14 03:31:45;;;;;;;4.00;3.60;;;;;;;11.09;88.82;95129.41;4972191;28;20188;-80
2021/07/14 03:34:11;;;;;;;5.23;3.20;;;;;;;11.15;88.80;95127.97;4955822;28;20205;-80
2021/07/14 03:36:36;;;;;;;6.43;3.53;;;;;;;11.09;89.41;95126.00;4973150;28;20188;-79
2021/07/14 03:39:03;;;;;;;3.57;3.23;;;;;;;11.07;88.91;95121.78;4992940;28;20196;-80
2021/07/14 03:41:29;;;;;;;4.67;3.50;;;;;;;11.01;89.60;95117.22;4992607;28;20846;-80
2021/07/14 03:43:56;;;;;;;4.43;3.50;;;;;;;11.02;88.97;95115.44;4975384;28;20218;-79
2021/07/14 03:46:21;;;;;;;6.73;3.73;;;;;;;11.02;89.49;95116.25;4991746;28;20254;-80
2021/07/14 03:48:47;;;;;;;4.13;3.80;;;;;;;10.92;90.08;95125.97;4973486;28;20187;-80
2021/07/14 03:51:16;;;;;;;4.87;3.57;;;;;;;10.95;90.00;95123.03;4975174;28;20279;-80
2021/07/14 03:53:41;;;;;;;4.03;3.73;;;;;;;11.01;89.65;95125.00;4991244;28;20260;-79
2021/07/14 03:56:07;;;;;;;3.93;3.63;;;;;;;11.08;89.53;95130.38;4991756;28;20204;-80
2021/07/14 03:58:32;;;;;;;3.90;3.60;;;;;;;11.08;89.17;95135.59;4990881;28;20192;-80
2021/07/14 04:00:57;;;;;;;4.27;3.87;;;;;;;11.02;89.81;95139.63;4991633;28;20180;-79
2021/07/14 04:03:27;;;;;;;4.03;3.73;;;;;;;11.03;89.91;95143.84;4991480;28;20245;-80
2021/07/14 04:05:54;;;;;;;5.50;4.00;;;;;;;11.07;90.06;95136.56;4991490;28;20199;-80
2021/07/14 04:08:23;;;;;;;4.93;3.50;;;;;;;11.10;89.70;95133.63;4974259;28;20172;-79
2021/07/14 04:10:48;;;;;;;5.87;3.63;;;;;;;11.17;89.19;95139.00;5007427;28;20222;-79
2021/07/14 04:13:14;;;;;;;5.67;3.47;;;;;;;11.18;89.25;95140.63;4992662;28;20569;-80
2021/07/14 04:15:39;;;;;;;4.83;3.70;;;;;;;11.07;89.73;95132.19;4979176;28;20267;-80
2021/07/14 04:18:08;;;;;;;4.40;3.97;;;;;;;11.16;89.63;95125.22;4978478;28;20184;-80
2021/07/14 04:20:34;;;;;;;4.10;3.70;;;;;;;11.09;89.92;95129.41;4993990;28;20266;-80
2021/07/14 04:22:59;;;;;;;4.30;3.90;;;;;;;11.09;89.60;95131.19;4994290;28;20282;-80
2021/07/14 04:25:25;;;;;;;4.83;4.30;;;;;;;11.14;89.66;95137.56;4994874;28;20200;-79
2021/07/14 04:27:50;;;;;;;4.47;4.03;;;;;;;11.33;89.53;95139.03;4995293;28;20672;-81
2021/07/14 04:30:17;;;;;;;4.23;3.87;;;;;;;11.31;89.32;95140.97;4994245;28;20192;-80
2021/07/14 04:32:42;;;;;;;7.50;3.90;;;;;;;11.37;88.99;95126.50;4994789;28;20709;-80
2021/07/14 04:35:08;;;;;;;5.93;3.83;;;;;;;11.38;88.98;95122.94;4994874;28;20168;-81
2021/07/14 04:37:33;;;;;;;4.47;3.67;;;;;;;11.40;88.65;95114.00;4978802;28;20176;-80
2021/07/14 04:39:58;;;;;;;3.90;3.60;;;;;;;11.48;88.28;95118.38;4994793;28;20211;-80
2021/07/14 04:42:24;;;;;;;3.60;3.30;;;;;;;11.55;88.23;95127.16;4976431;28;20302;-80
2021/07/14 04:44:52;;;;;;;4.67;3.97;;;;;;;11.51;88.29;95137.06;4995119;28;20648;-79
2021/07/14 04:47:20;;;;;;;4.23;3.77;;;;;;;11.61;87.67;95142.09;4995304;28;20186;-79
2021/07/14 04:49:46;;;;;;;6.30;3.90;;;;;;;11.58;87.98;95142.44;4994433;28;20177;-80
2021/07/14 04:52:11;;;;;;;3.43;3.13;;;;;;;11.71;87.60;95137.53;4976151;28;20242;-79
2021/07/14 04:54:39;;;;;;;3.87;3.27;;;;;;;11.72;87.96;95133.97;4994389;28;20187;-80
2021/07/14 04:57:05;;;;;;;3.30;3.00;;;;;;;11.74;87.84;95132.00;4994593;28;20251;-79
2021/07/14 04:59:34;;;;;;;3.93;3.63;;;;;;;11.75;87.95;95130.22;4995664;28;20176;-80
2021/07/14 05:02:00;;;;;;;3.57;3.27;;;;;;;11.83;87.51;95132.84;4991874;28;20567;-80
2021/07/14 05:04:25;;;;;;;4.23;3.73;;;;;;;11.82;87.34;95128.59;4993446;28;20192;-82
2021/07/14 05:06:50;;;;;;;4.87;3.37;;;;;;;11.88;87.39;95122.75;4977899;28;20215;-79
2021/07/14 05:09:16;;;;;;;3.60;3.30;;;;;;;12.06;86.02;95120.75;4982761;28;20197;-80
2021/07/14 05:11:41;;;;;;;4.53;3.43;;;;;;;11.95;86.59;95128.94;4979582;28;20655;-81
2021/07/14 05:14:06;;;;;;;3.83;3.30;;;;;;;11.93;86.91;95135.25;4994701;28;20199;-80
2021/07/14 05:16:32;;;;;;;3.63;3.33;;;;;;;11.89;86.83;95133.00;4996827;28;20638;-80
2021/07/14 05:18:57;;;;;;;3.40;3.10;;;;;;;11.95;87.13;95130.72;5014155;28;20771;-79
2021/07/14 05:21:23;;;;;;;4.73;3.13;;;;;;;12.14;86.00;95128.53;5006294;28;20194;-80
2021/07/14 05:23:48;;;;;;;5.33;3.63;;;;;;;12.20;85.50;95127.06;4977045;28;20711;-78
2021/07/14 05:26:16;;;;;;;3.50;3.17;;;;;;;12.24;85.74;95125.75;4995380;28;20263;-80
2021/07/14 05:28:41;;;;;;;5.50;3.20;;;;;;;12.18;85.21;95116.81;4993784;28;20203;-79
2021/07/14 05:31:07;;;;;;;3.43;3.13;;;;;;;12.12;85.90;95116.69;4994855;28;20176;-79
2021/07/14 05:33:32;;;;;;;4.50;3.40;;;;;;;12.18;86.03;95122.00;4992644;28;20231;-77
2021/07/14 05:35:57;;;;;;;4.23;3.47;;;;;;;12.31;85.69;95118.91;4978355;28;20178;-79
2021/07/14 05:38:23;;;;;;;3.47;3.17;;;;;;;12.36;85.11;95128.78;4994648;28;20180;-79
2021/07/14 05:40:50;;;;;;;3.10;2.80;;;;;;;12.46;85.19;95126.81;4997043;28;20218;-81
2021/07/14 05:43:16;;;;;;;3.27;2.97;;;;;;;12.45;85.00;95122.56;4994229;28;20211;-81
2021/07/14 05:45:41;;;;;;;5.60;3.33;;;;;;;12.60;84.15;95123.47;4978126;28;20196;-80
2021/07/14 05:48:07;;;;;;;3.43;3.10;;;;;;;12.55;84.35;95123.19;4993950;28;20671;-80
2021/07/14 05:50:33;;;;;;;4.30;3.30;;;;;;;12.52;84.58;95126.13;4977640;28;20689;-80
2021/07/14 05:52:58;;;;;;;4.57;3.23;;;;;;;12.56;84.94;95117.00;4994279;28;20199;-79
2021/07/14 05:55:24;;;;;;;3.10;2.67;;;;;;;12.51;84.58;95116.69;4975358;28;20231;-78
2021/07/14 05:57:51;;;;;;;3.57;3.17;;;;;;;12.58;84.53;95120.25;4991790;28;20577;-77
2021/07/14 06:00:17;;;;;;;3.60;3.30;;;;;;;12.60;84.34;95123.47;4985085;28;20182;-78
2021/07/14 06:02:42;;;;;;;3.90;3.10;;;;;;;12.66;83.87;95128.03;4998314;28;20204;-77
2021/07/14 06:05:09;;;;;;;3.83;2.90;;;;;;;12.85;83.01;95128.56;4980897;28;20211;-77
2021/07/14 06:07:35;;;;;;;3.23;2.93;;;;;;;12.85;83.54;95126.78;4976611;28;20179;-77
2021/07/14 06:10:00;;;;;;;3.43;2.67;;;;;;;12.88;83.45;95125.63;4992524;28;20180;-77
2021/07/14 06:12:25;;;;;;;3.27;2.93;;;;;;;12.98;83.55;95134.03;4992081;28;20211;-77
2021/07/14 06:14:51;;;;;;;4.70;2.60;;;;;;;13.01;83.55;95133.69;5008091;28;20196;-79
2021/07/14 06:17:17;;;;;;;3.30;3.00;;;;;;;13.10;83.44;95135.28;4993302;28;20263;-78
2021/07/14 06:19:42;;;;;;;3.93;2.97;;;;;;;13.19;83.43;95136.88;4993330;28;20198;-78
2021/07/14 06:22:07;;;;;;;3.83;2.87;;;;;;;13.22;82.40;95144.34;4992214;28;20267;-78
2021/07/14 06:24:33;;;;;;;3.10;2.80;;;;;;;13.16;83.24;95146.78;4992112;28;20191;-78
2021/07/14 06:26:58;;;;;;;3.70;3.10;;;;;;;13.08;83.35;95147.66;4982279;28;20298;-79
2021/07/14 06:29:24;;;;;;;4.33;2.63;;;;;;;13.06;83.00;95144.41;4976201;28;20267;-77
2021/07/14 06:31:50;;;;;;;4.20;2.90;;;;;;;12.99;83.39;95148.72;4976509;28;20223;-78
2021/07/14 06:34:16;;;;;;;3.77;2.70;;;;;;;12.86;83.65;95143.22;4992725;28;20226;-78
2021/07/14 06:36:41;;;;;;;3.20;2.90;;;;;;;13.05;83.95;95148.00;4972180;28;20192;-78
2021/07/14 06:39:07;;;;;;;3.20;2.90;;;;;;;13.06;83.32;95147.00;4992001;28;20191;-77
2021/07/14 06:41:32;;;;;;;3.27;2.97;;;;;;;13.05;83.32;95143.59;4976014;28;20266;-78
2021/07/14 06:44:01;;;;;;;3.30;2.97;;;;;;;13.00;83.38;95145.09;4992708;28;20203;-78
2021/07/14 06:46:27;;;;;;;2.77;2.57;;;;;;;13.10;82.90;95150.09;4990740;28;20242;-77
2021/07/14 06:48:52;;;;;;;2.87;2.67;;;;;;;12.98;82.96;95152.25;4976347;28;20176;-77
2021/07/14 06:51:17;;;;;;;5.50;2.53;;;;;;;13.03;82.91;95149.97;4992237;28;20203;-79
2021/07/14 06:53:43;;;;;;;3.67;2.67;;;;;;;13.04;82.91;95143.78;4992090;28;20689;-78
2021/07/14 06:56:08;;;;;;;2.63;2.43;;;;;;;13.12;82.72;95145.50;4993712;28;20226;-79
2021/07/14 06:58:39;;;;;;;2.73;2.53;;;;;;;13.06;82.77;95141.78;4991908;28;20364;-78
2021/07/14 07:01:04;;;;;;;4.60;2.40;;;;;;;12.97;82.70;95141.03;4973706;28;20220;-78
2021/07/14 07:03:30;;;;;;;3.20;2.90;;;;;;;12.98;83.55;95147.06;4996631;28;20253;-79
2021/07/14 07:05:55;;;;;;;2.70;2.50;;;;;;;13.00;82.43;95145.91;5013047;28;20195;-78
2021/07/14 07:08:20;;;;;;;2.53;2.30;;;;;;;13.14;82.71;95143.53;4983308;28;20722;-77
2021/07/14 07:10:47;;;;;;;2.97;2.50;;;;;;;13.05;82.66;95140.19;4993649;28;20207;-79
2021/07/14 07:13:15;;;;;;;2.63;2.43;;;;;;;13.20;82.87;95148.91;4992551;28;20606;-77
2021/07/14 07:15:42;;;;;;;3.20;2.83;;;;;;;13.17;82.78;95157.06;4978010;28;20207;-78
2021/07/14 07:18:07;;;;;;;2.87;2.57;;;;;;;13.15;82.30;95148.56;4989699;28;20179;-76
2021/07/14 07:20:33;;;;;;;4.13;2.90;;;;;;;13.24;82.74;95141.53;4991806;28;20589;-77
2021/07/14 07:22:58;;;;;;;4.90;2.70;;;;;;;13.35;81.97;95140.34;4978128;28;20215;-78
2021/07/14 07:25:26;;;;;;;2.73;2.53;;;;;;;13.33;81.81;95146.53;4993655;28;20568;-76
2021/07/14 07:27:51;;;;;;;3.53;2.43;;;;;;;13.23;82.04;95145.13;4978122;28;20176;-78
2021/07/14 07:30:17;;;;;;;2.60;2.40;;;;;;;13.26;81.95;95150.03;4995154;28;20199;-79
2021/07/14 07:32:43;;;;;;;4.67;2.50;;;;;;;13.17;81.78;95146.63;4972682;28;20287;-78
2021/07/14 07:35:09;;;;;;;2.43;2.17;;;;;;;13.24;81.57;95149.38;4979064;28;20239;-78
2021/07/14 07:37:34;;;;;;;3.50;2.23;;;;;;;13.25;82.10;95143.16;5010123;28;20180;-78
2021/07/14 07:39:59;;;;;;;4.90;2.53;;;;;;;13.42;81.61;95141.25;4989909;28;20594;-77
2021/07/14 07:42:25;;;;;;;3.30;2.50;;;;;;;13.54;81.68;95145.91;4993490;28;20617;-77
2021/07/14 07:44:50;;;;;;;2.47;2.27;;;;;;;13.73;81.17;95141.97;4976888;28;20685;-77
2021/07/14 07:47:16;;;;;;;6.33;2.20;;;;;;;13.81;80.80;95143.72;4977457;28;20184;-77
2021/07/14 07:49:45;;;;;;;3.97;2.30;;;;;;;13.86;80.68;95142.19;4996702;28;20188;-77
2021/07/14 07:52:10;;;;;;;2.70;2.50;;;;;;;14.07;79.68;95151.13;4978009;28;20234;-77
2021/07/14 07:54:36;;;;;;;5.67;2.17;;;;;;;14.14;79.54;95163.31;4975739;28;20188;-78
2021/07/14 07:57:02;;;;;;;2.30;2.13;;;;;;;14.11;79.56;95163.66;4991879;28;20190;-76
2021/07/14 07:59:27;;;;;;;2.50;2.27;;;;;;;14.20;78.96;95166.19;5003763;28;20256;-78
2021/07/14 08:01:52;;;;;;;2.37;2.17;;;;;;;13.97;80.30;95174.09;4995321;28;20211;-78
2021/07/14 08:04:18;;;;;;;3.30;2.53;;;;;;;13.87;80.78;95169.13;4990372;28;20293;-77
2021/07/14 08:06:43;;;;;;;2.63;2.43;;;;;;;13.98;80.97;95167.88;5016566;28;20266;-77
2021/07/14 08:09:08;;;;;;;3.93;2.40;;;;;;;14.06;80.46;95167.78;5015583;28;20179;-76
2021/07/14 08:11:34;;;;;;;2.53;2.40;;;;;;;14.12;80.07;95165.25;5010166;28;20172;-77
2021/07/14 08:13:59;;;;;;;2.57;2.37;;;;;;;13.92;80.49;95166.78;4993982;28;20546;-78
2021/07/14 08:16:26;;;;;;;3.10;2.30;;;;;;;13.97;80.70;95169.69;4979665;28;20171;-78
2021/07/14 08:18:52;;;;;;;2.50;2.30;;;;;;;13.98;80.73;95180.94;4996527;28;20200;-78
2021/07/14 08:21:18;;;;;;;2.97;2.10;;;;;;;14.13;79.81;95181.75;4995280;28;20227;-77
2021/07/14 08:23:43;;;;;;;2.40;2.20;;;;;;;14.25;80.11;95176.91;4993627;28;20210;-78
2021/07/14 08:26:08;;;;;;;2.30;2.20;;;;;;;14.28;79.64;95190.41;4995511;28;20203;-77
2021/07/14 08:28:34;;;;;;;2.40;2.00;;;;;;;14.40;79.15;95199.44;4996959;28;20210;-77
2021/07/14 08:30:59;;;;;;;3.40;2.47;;;;;;;14.43;79.15;95206.09;4996268;28;20168;-77
2021/07/14 08:33:24;;;;;;;3.20;2.50;;;;;;;14.25;80.30;95205.63;4993831;28;20683;-76
2021/07/14 08:35:50;;;;;;;3.57;2.47;;;;;;;14.43;79.52;95219.97;4977000;28;20180;-76
2021/07/14 08:38:15;;;;;;;2.30;2.20;;;;;;;14.31;79.56;95224.03;4995106;28;20172;-78
2021/07/14 08:40:41;;;;;;;2.53;2.33;;;;;;;14.39;78.80;95226.53;4996349;28;20203;-77
2021/07/14 08:43:09;;;;;;;3.37;1.90;;;;;;;14.20;80.51;95224.44;4993280;28;20199;-77
2021/07/14 08:45:34;;;;;;;3.67;2.30;;;;;;;14.25;80.28;95219.50;4972640;28;20200;-77
2021/07/14 08:48:00;;;;;;;3.03;2.73;;;;;;;14.31;79.95;95216.19;4992927;28;20187;-78
2021/07/14 08:50:27;;;;;;;3.30;2.67;;;;;;;14.13;80.58;95211.31;4996296;28;20648;-78
2021/07/14 08:52:52;;;;;;;3.20;3.00;;;;;;;14.28;80.42;95210.50;4993683;28;20207;-76
2021/07/14 08:55:19;;;;;;;4.43;2.67;;;;;;;14.28;80.28;95213.91;4993701;28;20187;-77
2021/07/14 08:57:45;;;;;;;2.63;2.43;;;;;;;14.26;80.49;95210.69;4995710;28;20183;-78
2021/07/14 09:00:18;;;;;;;3.37;2.37;;;;;;;14.23;80.89;95213.66;4995700;28;20184;-78
2021/07/14 09:02:43;;;;;;;2.50;2.30;;;;;;;14.25;81.04;95216.09;4993729;28;20207;-77
2021/07/14 09:05:10;;;;;;;3.37;2.53;;;;;;;14.09;81.25;95222.25;4990886;28;20187;-77
2021/07/14 09:07:36;;;;;;;4.47;2.90;;;;;;;14.29;81.04;95227.78;4993047;28;20187;-76
2021/07/14 09:10:04;;;;;;;3.50;3.20;;;;;;;14.39;79.95;95225.72;4993666;28;20234;-76
2021/07/14 09:12:41;;;;;;;4.00;3.08;;;;;;;14.54;80.57;95238.84;4994157;28;20212;-78
2021/07/14 09:15:08;;;;;;;5.03;2.77;;;;;;;14.64;80.39;95244.59;4992979;28;20686;-76
2021/07/14 09:17:33;;;;;;;3.03;2.83;;;;;;;14.68;80.43;95246.69;4991302;28;20195;-75
2021/07/14 09:20:32;;;;;;;3.00;2.80;;;;;;;14.67;79.91;95247.69;4992331;28;20191;-76
2021/07/14 09:23:09;;;;;;;3.03;2.70;;;;;;;14.68;79.92;95251.13;4986848;28;20216;-76
2021/07/14 09:25:48;;;;;;;2.80;2.60;;;;;;;14.86;80.00;95251.56;4992079;28;20918;-76
2021/07/14 09:28:16;;;;;;;3.50;3.10;;;;;;;14.79;79.65;95253.28;4990392;28;20183;-78
2021/07/14 09:30:43;;;;;;;3.37;3.03;;;;;;;14.94;78.89;95250.66;4993127;28;20244;-78
2021/07/14 09:33:10;;;;;;;3.10;2.90;;;;;;;14.68;79.40;95240.66;4992705;28;20566;-77
2021/07/14 09:35:42;;;;;;;3.20;3.00;;;;;;;14.79;78.74;95242.00;4992654;28;20270;-77
2021/07/14 09:38:24;;;;;;;3.97;3.30;;;;;;;14.97;78.51;95243.25;4990662;28;20195;-78
2021/07/14 09:40:57;;;;;;;4.07;3.30;;;;;;;15.06;78.29;95243.16;4973120;28;20600;-78
2021/07/14 09:43:25;;;;;;;4.90;2.93;;;;;;;15.36;77.53;95238.66;4957050;28;20227;-77
2021/07/14 09:45:54;;;;;;;2.97;2.78;;;;;;;15.53;77.09;95227.78;4973097;28;20211;-77
2021/07/14 09:48:23;;;;;;;3.97;3.30;;;;;;;15.76;76.59;95235.50;4980324;28;20590;-78
2021/07/14 09:50:52;;;;;;;4.63;2.78;;;;;;;15.90;75.92;95236.41;4976520;28;20188;-78
2021/07/14 09:53:19;;;;;;;4.03;2.35;;;;;;;16.06;74.87;95230.94;4975927;28;20220;-79
2021/07/14 09:55:47;;;;;;;5.18;2.88;;;;;;;16.09;74.35;95227.13;4992934;28;20168;-78
2021/07/14 09:58:21;;;;;;;3.15;2.85;;;;;;;16.43;73.58;95231.59;4974978;28;20643;-78
2021/07/14 10:00:52;;;;;;;2.90;2.22;;;;;;;16.50;72.57;95232.47;4992725;28;20202;-79
2021/07/14 10:03:20;;;;;;;3.30;2.70;;;;;;;16.63;72.60;95234.38;4963638;28;20214;-78
2021/07/14 10:05:46;;;;;;;3.25;2.80;;;;;;;16.83;72.09;95240.56;4995765;28;20203;-78
2021/07/14 10:08:13;;;;;;;2.63;2.42;;;;;;;17.23;71.01;95238.97;5012022;28;20189;-77
2021/07/14 10:10:39;;;;;;;4.97;2.65;;;;;;;17.12;69.81;95239.50;4993808;28;20547;-76
2021/07/14 10:13:08;;;;;;;3.10;2.80;;;;;;;17.14;69.79;95237.50;4991887;28;20234;-77
2021/07/14 10:15:34;;;;;;;2.58;2.38;;;;;;;17.44;68.71;95234.56;4976161;28;20176;-77
2021/07/14 10:17:59;;;;;;;4.30;2.60;;;;;;;17.06;70.17;95231.63;4993440;28;20175;-78
2021/07/14 10:20:33;;;;;;;3.20;2.35;;;;;;;17.42;69.49;95232.16;4971807;28;20207;-76
2021/07/14 10:23:15;;;;;;;2.42;2.22;;;;;;;17.63;68.81;95225.94;4991460;28;20227;-78
2021/07/14 10:25:42;;;;;;;3.50;1.70;;;;;;;17.41;67.39;95233.16;4975573;28;20664;-77
2021/07/14 10:28:09;;;;;;;3.35;1.70;;;;;;;17.76;66.31;95231.25;4991830;28;20192;-77
2021/07/14 10:30:36;;;;;;;1.90;1.80;;;;;;;17.83;64.56;95233.88;4989696;28;20203;-77
2021/07/14 10:33:02;;;;;;;1.58;1.48;;;;;;;17.65;64.85;95238.84;4990876;28;20214;-77
2021/07/14 10:35:34;;;;;;;1.40;1.30;;;;;;;17.53;64.34;95233.38;4992271;28;20180;-77
2021/07/14 10:38:03;;;;;;;1.48;1.38;;;;;;;17.52;65.09;95243.09;4991744;28;20175;-78
2021/07/14 10:40:29;;;;;;;2.83;1.90;;;;;;;17.43;65.37;95240.84;4992687;28;20723;-78
2021/07/14 10:42:55;;;;;;;2.00;1.40;;;;;;;17.23;65.20;95235.53;4973214;28;20302;-77
2021/07/14 10:45:21;;;;;;;2.05;1.85;;;;;;;17.24;66.53;95248.44;4976106;28;20200;-78
2021/07/14 10:47:48;;;;;;;2.97;1.80;;;;;;;17.42;66.07;95244.47;4977326;28;20604;-77
2021/07/14 10:50:15;;;;;;;2.65;1.73;;;;;;;17.31;67.28;95250.25;4991982;28;20184;-78
2021/07/14 10:52:41;;;;;;;3.65;1.70;;;;;;;17.35;66.39;95247.06;4974442;28;20610;-78
2021/07/14 10:55:08;;;;;;;5.88;1.70;;;;;;;17.31;66.92;95245.81;4975192;28;20176;-78
2021/07/14 10:57:35;;;;;;;4.45;1.70;;;;;;;17.23;66.34;95253.88;4992158;28;20655;-77
2021/07/14 11:00:00;;;;;;;1.48;1.33;;;;;;;16.85;65.49;95251.66;4991014;28;20456;-78
2021/07/14 11:02:40;;;;;;;1.42;1.30;;;;;;;16.99;65.33;95257.81;4991386;28;20726;-78
2021/07/14 11:05:07;;;;;;;2.58;1.40;;;;;;;16.94;63.32;95252.31;5008616;28;20182;-78
2021/07/14 11:07:47;;;;;;;1.08;1.08;;;;;;;17.11;64.38;95251.00;4993929;28;20187;-77
2021/07/14 11:10:25;;;;;;;1.95;1.48;;;;;;;17.33;64.18;95258.78;5010763;28;20183;-77
2021/07/14 11:12:51;;;;;;;1.33;1.05;;;;;;;17.27;63.48;95263.78;4967654;28;20207;-78
2021/07/14 11:15:46;;;;;;;1.83;1.02;;;;;;;17.40;63.03;95259.59;4983899;28;20755;-78
2021/07/14 11:18:38;;;;;;;1.20;1.10;;;;;;;17.12;63.04;95259.66;4971806;28;20196;-77
2021/07/14 11:21:04;;;;;;;1.30;1.20;;;;;;;17.04;62.91;95265.88;4965516;28;20185;-76
2021/07/14 11:23:29;;;;;;;1.40;0.95;;;;;;;17.28;61.45;95269.84;4941809;29;20221;-77
2021/07/14 11:25:56;;;;;;;1.30;1.13;;;;;;;17.04;62.88;95260.63;4954907;29;20205;-76
2021/07/14 11:28:24;;;;;;;1.38;1.02;;;;;;;17.40;62.45;95264.84;4955431;29;20193;-78
2021/07/14 11:30:51;;;;;;;1.25;1.15;;;;;;;17.56;61.84;95264.47;4939403;29;20185;-77
2021/07/14 11:33:25;;;;;;;1.33;1.23;;;;;;;18.15;60.39;95260.41;4943986;28;20248;-78
2021/07/14 11:36:02;;;;;;;1.42;1.05;;;;;;;18.33;59.29;95261.41;4954637;29;20247;-77
2021/07/14 11:38:33;;;;;;;0.90;0.90;;;;;;;18.07;59.45;95262.19;4939091;29;20199;-78
2021/07/14 11:41:01;;;;;;;0.95;0.93;;;;;;;18.41;58.70;95268.28;4922697;29;20208;-78
2021/07/14 11:43:40;;;;;;;0.95;0.95;;;;;;;18.32;57.53;95262.41;4954556;28;20224;-78